createdAt,value
2023-01-07T00:01:46.792Z,3.35
2023-01-07T00:04:17.571Z,4.15
2023-01-07T00:06:47.554Z,4.47
2023-01-07T00:09:19.106Z,3.75
2023-01-07T00:11:48.872Z,3.63
2023-01-07T00:14:18.137Z,3.97
2023-01-07T00:16:47.407Z,4.05
2023-01-07T00:19:17.808Z,3.80
2023-01-07T00:21:47.030Z,4.68
2023-01-07T00:24:18.291Z,3.60
2023-01-07T00:26:47.740Z,3.57
2023-01-07T00:29:17.157Z,3.42
2023-01-07T00:31:46.552Z,3.35
2023-01-07T00:34:16.923Z,4.05
2023-01-07T00:36:47.763Z,3.38
2023-01-07T00:39:18.731Z,3.53
2023-01-07T00:42:01.714Z,3.67
2023-01-07T00:44:31.914Z,3.60
2023-01-07T00:47:01.842Z,3.50
2023-01-07T00:49:31.331Z,3.63
2023-01-07T00:52:00.597Z,3.47
2023-01-07T00:54:29.930Z,3.45
2023-01-07T00:56:59.703Z,3.42
2023-01-07T00:59:28.958Z,3.45
2023-01-07T01:01:58.367Z,3.53
2023-01-07T01:04:27.824Z,3.63
2023-01-07T01:06:57.052Z,4.38
2023-01-07T01:09:26.729Z,3.10
2023-01-07T01:11:56.055Z,3.72
2023-01-07T01:14:25.869Z,3.40
2023-01-07T01:16:55.144Z,3.40
2023-01-07T01:19:24.370Z,3.45
2023-01-07T01:21:53.668Z,3.58
2023-01-07T01:24:22.919Z,3.92
2023-01-07T01:26:52.154Z,3.40
2023-01-07T01:29:21.441Z,3.53
2023-01-07T01:31:51.594Z,3.40
2023-01-07T01:34:20.987Z,3.53
2023-01-07T01:36:50.295Z,4.05
2023-01-07T01:39:20.536Z,3.95
2023-01-07T01:41:50.057Z,3.97
2023-01-07T01:44:37.937Z,4.95
2023-01-07T01:47:35.812Z,3.83
2023-01-07T01:50:10.061Z,4.18
2023-01-07T01:52:47.869Z,4.18
2023-01-07T01:55:19.364Z,3.88
2023-01-07T01:57:51.498Z,3.33
2023-01-07T02:00:21.451Z,3.28
2023-01-07T02:02:57.348Z,3.85
2023-01-07T02:05:28.938Z,3.80
2023-01-07T02:07:58.192Z,3.60
2023-01-07T02:10:31.226Z,3.30
2023-01-07T02:15:35.895Z,3.15
2023-01-07T02:18:11.107Z,3.65
2023-01-07T02:20:43.099Z,3.75
2023-01-07T02:23:15.355Z,3.85
2023-01-07T02:25:47.480Z,3.10
2023-01-07T02:28:40.358Z,3.88
2023-01-07T02:31:27.610Z,3.25
2023-01-07T02:34:03.551Z,4.25
2023-01-07T02:36:48.226Z,3.70
2023-01-07T02:39:30.107Z,3.20
2023-01-07T02:42:00.820Z,2.80
2023-01-07T02:44:35.725Z,2.92
2023-01-07T02:47:18.284Z,3.05
2023-01-07T02:52:22.521Z,3.53
2023-01-07T02:55:02.312Z,3.78
2023-01-07T02:57:44.696Z,3.10
2023-01-07T03:00:32.851Z,3.13
2023-01-07T03:03:20.498Z,2.90
2023-01-07T03:06:04.849Z,2.80
2023-01-07T03:08:40.214Z,3.50
2023-01-07T03:11:11.783Z,3.03
2023-01-07T03:13:41.012Z,2.75
2023-01-07T03:16:18.570Z,2.85
2023-01-07T03:19:06.782Z,2.85
2023-01-07T03:21:36.431Z,2.97
2023-01-07T03:24:05.892Z,3.38
2023-01-07T03:26:36.497Z,3.05
2023-01-07T03:29:08.808Z,3.00
2023-01-07T03:31:39.434Z,2.70
2023-01-07T03:34:14.909Z,2.83
2023-01-07T03:36:49.157Z,2.97
2023-01-07T03:39:19.497Z,3.50
2023-01-07T03:42:04.145Z,3.55
2023-01-07T03:44:33.446Z,3.42
2023-01-07T03:47:02.815Z,3.10
2023-01-07T03:49:32.329Z,3.40
2023-01-07T03:52:01.635Z,3.33
2023-01-07T03:54:30.914Z,3.83
2023-01-07T03:57:00.242Z,3.97
2023-01-07T03:59:29.481Z,3.38
2023-01-07T04:01:59.106Z,3.55
2023-01-07T04:04:28.803Z,3.10
2023-01-07T04:06:58.118Z,3.10
2023-01-07T04:09:28.810Z,2.92
2023-01-07T04:11:58.327Z,3.42
2023-01-07T04:14:27.867Z,2.85
2023-01-07T04:16:57.164Z,2.90
2023-01-07T04:19:26.580Z,2.80
2023-01-07T04:21:56.133Z,3.65
2023-01-07T04:24:25.431Z,3.00
2023-01-07T04:26:55.063Z,2.70
2023-01-07T04:29:24.994Z,2.83
2023-01-07T04:31:55.056Z,2.80
2023-01-07T04:34:24.335Z,2.88
2023-01-07T04:36:53.910Z,2.70
2023-01-07T04:39:23.185Z,3.05
2023-01-07T04:41:52.749Z,3.28
2023-01-07T04:44:22.541Z,2.83
2023-01-07T04:46:51.932Z,2.55
2023-01-07T04:49:22.146Z,2.90
2023-01-07T04:51:51.873Z,2.78
2023-01-07T04:54:21.727Z,2.65
2023-01-07T04:56:51.014Z,2.65
2023-01-07T04:59:21.108Z,2.97
2023-01-07T05:01:50.701Z,3.00
2023-01-07T05:04:20.123Z,2.78
2023-01-07T05:06:50.105Z,2.78
2023-01-07T05:09:20.645Z,2.85
2023-01-07T05:11:49.898Z,3.00
2023-01-07T05:14:19.845Z,2.90
2023-01-07T05:16:53.058Z,2.35
2023-01-07T05:19:23.541Z,3.78
2023-01-07T05:21:54.366Z,2.45
2023-01-07T05:24:23.935Z,2.58
2023-01-07T05:26:54.508Z,3.08
2023-01-07T05:29:24.642Z,2.78
2023-01-07T05:31:53.960Z,2.90
2023-01-07T05:34:23.352Z,3.15
2023-01-07T05:36:52.638Z,2.70
2023-01-07T05:39:22.161Z,2.80
2023-01-07T05:41:51.470Z,2.55
2023-01-07T05:44:20.806Z,2.80
2023-01-07T05:46:50.040Z,2.70
2023-01-07T05:49:19.363Z,2.67
2023-01-07T05:51:48.649Z,3.20
2023-01-07T05:54:17.877Z,3.10
2023-01-07T05:56:47.130Z,4.15
2023-01-07T05:59:17.072Z,2.55
2023-01-07T06:01:46.310Z,3.15
2023-01-07T06:04:15.564Z,2.38
2023-01-07T06:06:44.843Z,2.60
2023-01-07T06:09:14.223Z,2.60
2023-01-07T06:11:43.523Z,2.88
2023-01-07T06:14:12.765Z,2.70
2023-01-07T06:16:42.012Z,3.30
2023-01-07T06:19:11.245Z,2.05
2023-01-07T06:21:40.483Z,2.58
2023-01-07T06:24:10.223Z,2.33
2023-01-07T06:26:39.530Z,2.13
2023-01-07T06:29:08.869Z,2.15
2023-01-07T06:31:38.094Z,2.83
2023-01-07T06:34:07.509Z,2.00
2023-01-07T06:36:36.715Z,1.80
2023-01-07T06:39:06.222Z,1.92
2023-01-07T06:41:35.518Z,2.65
2023-01-07T06:44:04.904Z,2.08
2023-01-07T06:46:34.411Z,1.65
2023-01-07T06:49:03.679Z,2.00
2023-01-07T06:51:33.006Z,2.15
2023-01-07T06:54:02.573Z,1.65
2023-01-07T06:56:31.931Z,1.73
2023-01-07T06:59:01.312Z,1.63
2023-01-07T07:01:30.826Z,2.00
2023-01-07T07:04:00.223Z,1.75
2023-01-07T07:06:29.572Z,1.60
2023-01-07T07:08:58.853Z,1.92
2023-01-07T07:11:28.077Z,1.73
2023-01-07T07:13:57.366Z,1.80
2023-01-07T07:16:26.607Z,1.70
2023-01-07T07:18:56.507Z,1.98
2023-01-07T07:21:25.890Z,1.60
2023-01-07T07:23:55.743Z,1.88
2023-01-07T07:26:27.897Z,2.00
2023-01-07T07:28:57.239Z,1.75
2023-01-07T07:31:26.563Z,1.52
2023-01-07T07:33:55.953Z,1.70
2023-01-07T07:36:27.820Z,1.75
2023-01-07T07:38:57.589Z,1.42
2023-01-07T07:41:26.898Z,1.55
2023-01-07T07:43:56.187Z,1.60
2023-01-07T07:46:25.589Z,1.50
2023-01-07T07:48:54.881Z,1.50
2023-01-07T07:51:24.172Z,1.67
2023-01-07T07:53:53.396Z,1.70
2023-01-07T07:56:26.156Z,1.73
2023-01-07T07:58:55.466Z,1.70
2023-01-07T08:01:24.815Z,1.48
2023-01-07T08:03:54.106Z,1.42
2023-01-07T08:06:23.355Z,1.40
2023-01-07T08:08:55.152Z,1.70
2023-01-07T08:11:24.418Z,1.77
2023-01-07T08:13:53.920Z,1.58
2023-01-07T08:16:23.175Z,1.55
2023-01-07T08:18:53.630Z,1.40
2023-01-07T08:21:22.884Z,1.65
2023-01-07T08:23:52.169Z,1.65
2023-01-07T08:26:21.578Z,1.23
2023-01-07T08:28:50.826Z,1.55
2023-01-07T08:31:20.195Z,1.48
2023-01-07T08:33:49.513Z,1.58
2023-01-07T08:36:23.168Z,1.30
2023-01-07T08:38:53.485Z,1.40
2023-01-07T08:41:23.315Z,1.20
2023-01-07T08:43:52.723Z,1.35
2023-01-07T08:46:21.990Z,1.20
2023-01-07T08:48:52.699Z,1.38
2023-01-07T08:51:21.888Z,1.27
2023-01-07T08:53:53.824Z,1.60
2023-01-07T08:56:23.127Z,1.58
2023-01-07T08:58:54.244Z,1.25
2023-01-07T09:01:23.665Z,1.27
2023-01-07T09:03:52.933Z,1.50
2023-01-07T09:06:22.144Z,1.85
2023-01-07T09:08:51.595Z,1.60
2023-01-07T09:11:20.891Z,1.20
2023-01-07T09:13:50.167Z,1.27
2023-01-07T09:16:19.448Z,1.20
2023-01-07T09:18:48.673Z,1.40
2023-01-07T09:21:17.928Z,1.80
2023-01-07T09:23:47.193Z,1.38
2023-01-07T09:26:16.424Z,1.75
2023-01-07T09:28:45.778Z,1.50
2023-01-07T09:31:15.048Z,1.70
2023-01-07T09:33:45.343Z,1.50
2023-01-07T09:36:15.742Z,1.50
2023-01-07T09:38:46.480Z,1.63
2023-01-07T09:41:24.625Z,1.67
2023-01-07T09:43:59.339Z,2.08
2023-01-07T09:46:30.770Z,1.67
2023-01-07T09:49:03.178Z,1.60
2023-01-07T09:54:03.005Z,1.20
2023-01-07T09:56:36.170Z,1.50
2023-01-07T09:59:10.075Z,1.38
2023-01-07T10:01:48.794Z,1.90
2023-01-07T10:04:54.140Z,1.15
2023-01-07T10:07:36.131Z,1.40
2023-01-07T10:10:08.279Z,2.28
2023-01-07T10:12:55.845Z,1.45
2023-01-07T10:15:43.790Z,2.15
2023-01-07T10:18:13.002Z,1.75
2023-01-07T10:20:44.032Z,1.50
2023-01-07T10:23:15.754Z,1.80
2023-01-07T10:25:47.275Z,1.45
2023-01-07T10:28:32.697Z,1.53
2023-01-07T10:31:03.502Z,1.30
2023-01-07T10:33:35.042Z,1.30
2023-01-07T10:36:07.411Z,1.63
2023-01-07T10:41:11.875Z,1.35
2023-01-07T10:43:56.976Z,1.50
2023-01-07T10:46:44.859Z,1.33
2023-01-07T10:49:26.126Z,1.35
2023-01-07T10:52:14.899Z,1.40
2023-01-07T10:54:57.417Z,1.30
2023-01-07T10:59:59.068Z,1.17
2023-01-07T11:02:28.723Z,1.20
2023-01-07T11:04:59.061Z,1.25
2023-01-07T11:07:28.954Z,1.58
2023-01-07T11:09:58.969Z,1.42
2023-01-07T11:12:38.616Z,1.30
2023-01-07T11:15:10.773Z,1.08
2023-01-07T11:17:47.898Z,1.23
2023-01-07T11:20:37.460Z,1.20
2023-01-07T11:23:20.498Z,1.30
2023-01-07T11:25:49.867Z,1.48
2023-01-07T11:28:22.938Z,1.23
2023-01-07T11:30:59.355Z,1.20
2023-01-07T11:34:02.652Z,1.20
2023-01-07T11:36:19.822Z,1.35
2023-01-07T11:38:52.937Z,1.17
2023-01-07T11:41:23.645Z,1.10
2023-01-07T11:43:54.199Z,1.27
2023-01-07T11:46:26.914Z,0.82
2023-01-07T11:49:01.100Z,1.17
2023-01-07T11:51:43.044Z,1.02
2023-01-07T11:54:21.907Z,1.08
2023-01-07T11:56:52.401Z,1.02
2023-01-07T11:59:23.309Z,1.17
2023-01-07T12:01:54.098Z,1.23
2023-01-07T12:04:24.949Z,1.00
2023-01-07T12:06:56.364Z,1.10
2023-01-07T12:09:27.673Z,1.20
2023-01-07T12:11:59.315Z,1.50
2023-01-07T12:14:34.311Z,1.10
2023-01-07T12:17:32.989Z,1.00
2023-01-07T12:20:05.124Z,1.55
2023-01-07T12:22:38.705Z,0.90
2023-01-07T12:25:15.288Z,1.60
2023-01-07T12:27:53.613Z,1.35
2023-01-07T12:30:32.173Z,1.83
2023-01-07T12:33:10.532Z,1.50
2023-01-07T12:35:42.708Z,1.65
2023-01-07T12:40:48.176Z,1.60
2023-01-07T12:43:26.386Z,1.48
2023-01-07T12:46:03.544Z,1.35
2023-01-07T12:48:49.668Z,1.77
2023-01-07T12:51:31.277Z,1.38
2023-01-07T12:54:06.674Z,1.73
2023-01-07T12:56:43.756Z,1.60
2023-01-07T12:59:47.224Z,1.85
2023-01-07T13:02:37.660Z,1.70
2023-01-07T13:05:11.329Z,1.57
2023-01-07T13:07:48.745Z,2.05
2023-01-07T13:10:28.160Z,1.95
2023-01-07T13:12:59.727Z,2.55
2023-01-07T13:15:30.161Z,2.00
2023-01-07T13:18:00.653Z,1.80
2023-01-07T13:20:42.157Z,2.30
2023-01-07T13:23:20.527Z,2.15
2023-01-07T13:26:08.606Z,1.85
2023-01-07T13:28:53.434Z,1.90
2023-01-07T13:31:22.773Z,2.03
2023-01-07T13:34:02.668Z,2.67
2023-01-07T13:36:45.172Z,2.38
2023-01-07T13:41:56.479Z,2.80
2023-01-07T13:44:44.248Z,2.58
2023-01-07T13:47:15.011Z,2.60
2023-01-07T13:49:56.958Z,2.40
2023-01-07T13:54:56.988Z,2.90
2023-01-07T13:57:26.177Z,2.53
2023-01-07T13:59:59.142Z,2.47
2023-01-07T14:02:29.486Z,2.58
2023-01-07T14:05:07.885Z,2.78
2023-01-07T14:07:50.969Z,3.05
2023-01-07T14:10:28.245Z,2.47
2023-01-07T14:13:14.692Z,2.67
2023-01-07T14:15:43.963Z,3.03
2023-01-07T14:18:29.029Z,2.20
2023-01-07T14:21:06.410Z,2.67
2023-01-07T14:23:41.896Z,2.40
2023-01-07T14:26:34.431Z,2.38
2023-01-07T14:29:22.847Z,1.88
2023-01-07T14:31:53.442Z,2.08
2023-01-07T14:34:26.798Z,2.47
2023-01-07T14:37:05.147Z,2.10
2023-01-07T14:39:34.389Z,2.60
2023-01-07T14:42:21.973Z,2.50
2023-01-07T14:44:52.005Z,2.10
2023-01-07T14:47:39.764Z,2.40
2023-01-07T14:50:11.720Z,2.03
2023-01-07T14:52:56.283Z,2.35
2023-01-07T14:55:34.857Z,2.15
2023-01-07T14:58:15.692Z,2.17
2023-01-07T15:01:00.351Z,2.50
2023-01-07T15:03:35.741Z,2.75
2023-01-07T15:06:11.021Z,2.58
2023-01-07T15:09:01.116Z,2.30
2023-01-07T15:11:43.208Z,2.20
2023-01-07T15:14:43.529Z,2.35
2023-01-07T15:17:15.637Z,2.08
2023-01-07T15:19:45.837Z,2.10
2023-01-07T15:22:34.199Z,1.92
2023-01-07T15:25:22.731Z,2.30
2023-01-07T15:28:06.706Z,1.83
2023-01-07T15:30:54.381Z,1.80
2023-01-07T15:33:36.757Z,1.95
2023-01-07T15:36:07.092Z,1.98
2023-01-07T15:38:50.504Z,2.38
2023-01-07T15:41:34.111Z,2.15
2023-01-07T15:44:05.236Z,1.70
2023-01-07T15:46:34.933Z,2.30
2023-01-07T15:49:13.067Z,2.38
2023-01-07T15:51:43.401Z,2.58
2023-01-07T15:54:24.230Z,2.00
2023-01-07T15:56:54.410Z,2.60
2023-01-07T15:59:27.775Z,2.17
2023-01-07T16:02:01.150Z,2.50
2023-01-07T16:04:34.119Z,2.42
2023-01-07T16:07:03.755Z,2.80
2023-01-07T16:09:34.303Z,2.78
2023-01-07T16:12:03.692Z,2.60
2023-01-07T16:14:38.112Z,2.53
2023-01-07T16:17:19.818Z,2.60
2023-01-07T16:19:49.050Z,2.70
2023-01-07T16:22:20.300Z,2.85
2023-01-07T16:24:54.379Z,2.28
2023-01-07T16:27:28.261Z,2.10
2023-01-07T16:29:58.833Z,2.30
2023-01-07T16:32:28.586Z,2.30
2023-01-07T16:34:57.848Z,2.33
2023-01-07T16:37:27.254Z,2.22
2023-01-07T16:39:56.624Z,1.80
2023-01-07T16:42:27.450Z,2.30
2023-01-07T16:44:56.831Z,2.08
2023-01-07T16:47:30.079Z,2.15
2023-01-07T16:50:22.694Z,2.30
2023-01-07T16:52:53.181Z,2.03
2023-01-07T16:55:41.084Z,2.20
2023-01-07T16:58:18.411Z,2.22
2023-01-07T17:00:51.513Z,1.95
2023-01-07T17:03:20.995Z,2.33
2023-01-07T17:06:04.546Z,1.90
2023-01-07T17:08:34.306Z,2.00
2023-01-07T17:11:08.347Z,1.92
2023-01-07T17:13:39.928Z,1.95
2023-01-07T17:16:23.434Z,2.20
2023-01-07T17:18:53.126Z,3.28
2023-01-07T17:21:37.813Z,2.92
2023-01-07T17:24:07.488Z,2.28
2023-01-07T17:26:40.655Z,1.92
2023-01-07T17:29:15.514Z,1.65
2023-01-07T17:31:44.861Z,2.00
2023-01-07T17:34:15.797Z,2.50
2023-01-07T17:36:45.008Z,2.78
2023-01-07T17:39:14.570Z,2.40
2023-01-07T17:41:56.287Z,2.20
2023-01-07T17:44:25.523Z,3.00
2023-01-07T17:46:54.746Z,2.67
2023-01-07T17:49:23.938Z,2.53
2023-01-07T17:51:54.735Z,2.75
2023-01-07T17:54:25.760Z,2.65
2023-01-07T17:56:55.303Z,2.30
2023-01-07T17:59:25.270Z,3.05
2023-01-07T18:01:56.644Z,2.50
2023-01-07T18:04:26.039Z,3.00
2023-01-07T18:06:55.430Z,3.65
2023-01-07T18:09:24.669Z,2.53
2023-01-07T18:12:06.346Z,2.33
2023-01-07T18:14:35.589Z,2.50
2023-01-07T18:17:04.875Z,2.22
2023-01-07T18:19:34.132Z,2.80
2023-01-07T18:22:03.408Z,2.97
2023-01-07T18:24:32.655Z,2.70
2023-01-07T18:27:01.874Z,3.10
2023-01-07T18:29:31.147Z,3.05
2023-01-07T18:32:00.506Z,2.97
2023-01-07T18:34:29.817Z,3.40
2023-01-07T18:36:59.084Z,2.55
2023-01-07T18:39:28.340Z,2.67
2023-01-07T18:41:57.562Z,2.92
2023-01-07T18:44:27.211Z,2.67
2023-01-07T18:46:56.414Z,2.78
2023-01-07T18:49:25.686Z,2.42
2023-01-07T18:51:54.891Z,2.80
2023-01-07T18:54:24.346Z,2.58
2023-01-07T18:56:53.536Z,3.10
2023-01-07T18:59:22.743Z,2.40
2023-01-07T19:01:57.932Z,2.45
2023-01-07T19:04:27.580Z,3.00
2023-01-07T19:06:56.829Z,2.45
2023-01-07T19:09:26.070Z,2.30
2023-01-07T19:11:56.189Z,2.50
2023-01-07T19:14:25.420Z,2.90
2023-01-07T19:16:55.262Z,2.28
2023-01-07T19:19:24.532Z,2.67
2023-01-07T19:21:53.803Z,3.17
2023-01-07T19:24:23.197Z,1.88
2023-01-07T19:26:52.546Z,2.20
2023-01-07T19:29:22.005Z,2.20
2023-01-07T19:31:51.308Z,2.40
2023-01-07T19:34:20.608Z,2.03
2023-01-07T19:36:49.857Z,2.67
2023-01-07T19:39:20.263Z,2.85
2023-01-07T19:41:49.573Z,2.58
2023-01-07T19:44:19.207Z,2.90
2023-01-07T19:46:48.539Z,2.78
2023-01-07T19:49:17.837Z,2.22
2023-01-07T19:51:47.089Z,2.53
2023-01-07T19:54:17.174Z,2.53
2023-01-07T19:56:46.509Z,2.50
2023-01-07T19:59:15.883Z,3.08
2023-01-07T20:01:45.941Z,2.10
2023-01-07T20:04:15.325Z,2.60
2023-01-07T20:06:46.669Z,2.20
2023-01-07T20:09:15.904Z,2.15
2023-01-07T20:11:45.458Z,2.78
2023-01-07T20:14:15.193Z,2.50
2023-01-07T20:16:44.524Z,2.25
2023-01-07T20:19:14.193Z,2.13
2023-01-07T20:21:43.414Z,2.00
2023-01-07T20:24:14.408Z,2.00
2023-01-07T20:26:43.664Z,1.85
2023-01-07T20:29:12.887Z,2.22
2023-01-07T20:31:42.731Z,1.88
2023-01-07T20:34:12.729Z,2.47
2023-01-07T20:36:42.104Z,1.85
2023-01-07T20:39:11.400Z,1.60
2023-01-07T20:41:40.688Z,1.67
2023-01-07T20:44:10.728Z,1.95
2023-01-07T20:46:40.829Z,1.63
2023-01-07T20:49:10.718Z,1.77
2023-01-07T20:51:40.033Z,1.55
2023-01-07T20:54:09.357Z,1.70
2023-01-07T20:56:38.606Z,1.75
2023-01-07T20:59:07.808Z,2.00
2023-01-07T21:01:37.236Z,1.80
2023-01-07T21:04:06.568Z,1.67
2023-01-07T21:06:35.813Z,1.60
2023-01-07T21:09:05.032Z,2.45
2023-01-07T21:11:34.261Z,1.83
2023-01-07T21:14:03.771Z,2.03
2023-01-07T21:16:33.101Z,2.38
2023-01-07T21:19:02.369Z,2.05
2023-01-07T21:21:31.569Z,2.10
2023-01-07T21:24:01.282Z,2.08
2023-01-07T21:26:30.536Z,1.85
2023-01-07T21:28:59.757Z,2.13
2023-01-07T21:31:29.362Z,1.83
2023-01-07T21:33:59.669Z,2.20
2023-01-07T21:36:29.678Z,1.80
2023-01-07T21:39:00.441Z,2.15
2023-01-07T21:41:30.076Z,2.33
2023-01-07T21:43:59.750Z,2.30
2023-01-07T21:46:28.986Z,2.28
2023-01-07T21:48:58.313Z,2.28
2023-01-07T21:51:30.726Z,2.58
2023-01-07T21:56:32.245Z,1.95
2023-01-07T22:01:31.371Z,2.17
2023-01-07T22:04:01.508Z,2.00
2023-01-07T22:06:31.698Z,2.22
2023-01-07T22:09:02.444Z,2.10
2023-01-07T22:11:31.706Z,2.17
2023-01-07T22:14:01.898Z,2.50
2023-01-07T22:16:32.297Z,1.85
2023-01-07T22:19:01.835Z,1.80
2023-01-07T22:21:31.198Z,2.30
2023-01-07T22:24:00.522Z,1.80
2023-01-07T22:26:29.729Z,2.28
2023-01-07T22:29:02.590Z,2.00
2023-01-07T22:31:33.787Z,2.08
2023-01-07T22:34:03.032Z,2.05
2023-01-07T22:36:41.036Z,2.17
2023-01-07T22:39:16.478Z,2.00
2023-01-07T22:41:46.227Z,1.98
2023-01-07T22:44:17.736Z,2.50
2023-01-07T22:46:49.043Z,2.10
2023-01-07T22:49:18.408Z,2.17
2023-01-07T22:51:49.437Z,2.05
2023-01-07T22:54:19.168Z,1.77
2023-01-07T22:56:48.500Z,2.00
2023-01-07T22:59:17.800Z,2.00
2023-01-07T23:01:47.072Z,2.50
2023-01-07T23:04:16.430Z,1.98
2023-01-07T23:06:45.714Z,2.03
2023-01-07T23:09:14.996Z,1.95
2023-01-07T23:11:59.222Z,2.78
2023-01-07T23:14:29.322Z,2.58
2023-01-07T23:16:59.140Z,2.00
2023-01-07T23:19:29.925Z,2.70
2023-01-07T23:22:00.100Z,2.83
2023-01-07T23:24:29.360Z,2.17
2023-01-07T23:26:58.620Z,2.10
2023-01-07T23:29:27.886Z,2.20
2023-01-07T23:31:57.187Z,2.33
2023-01-07T23:34:26.426Z,2.15
2023-01-07T23:36:55.731Z,2.30
2023-01-07T23:39:24.987Z,2.25
2023-01-07T23:41:54.191Z,2.75
2023-01-07T23:44:23.439Z,2.40
2023-01-07T23:46:52.687Z,2.35
2023-01-07T23:49:21.866Z,2.30
2023-01-07T23:51:51.083Z,2.20
2023-01-07T23:54:20.371Z,2.15
2023-01-07T23:56:49.558Z,2.25
2023-01-07T23:59:19.125Z,2.10
